createdAt,value
2024-01-07T00:02:10.861Z,67.69
2024-01-07T00:07:13.313Z,67.78
2024-01-07T00:12:16.054Z,67.69
2024-01-07T00:17:18.528Z,67.62
2024-01-07T00:22:21.143Z,67.78
2024-01-07T00:27:28.686Z,67.56
2024-01-07T00:32:31.213Z,67.70
2024-01-07T00:37:36.361Z,67.49
2024-01-07T00:42:38.823Z,67.67
2024-01-07T00:47:41.332Z,67.56
2024-01-07T00:52:44.625Z,67.44
2024-01-07T00:57:47.116Z,67.57
2024-01-07T01:02:49.702Z,67.66
2024-01-07T01:07:53.398Z,67.54
2024-01-07T01:12:56.080Z,67.69
2024-01-07T01:17:58.700Z,67.61
2024-01-07T01:23:01.287Z,67.41
2024-01-07T01:28:04.060Z,67.46
2024-01-07T01:33:06.735Z,67.37
2024-01-07T01:38:09.244Z,67.60
2024-01-07T01:43:11.822Z,67.48
2024-01-07T01:48:15.022Z,67.16
2024-01-07T01:53:18.026Z,67.29
2024-01-07T01:58:21.393Z,67.31
2024-01-07T02:03:23.897Z,67.32
2024-01-07T02:08:26.836Z,67.09
2024-01-07T02:13:30.076Z,67.06
2024-01-07T02:18:32.936Z,67.22
2024-01-07T02:23:35.510Z,67.33
2024-01-07T02:28:37.941Z,67.05
2024-01-07T02:33:40.508Z,67.04
2024-01-07T02:38:42.986Z,67.20
2024-01-07T02:43:45.523Z,67.23
2024-01-07T02:48:48.043Z,67.25
2024-01-07T02:53:50.562Z,66.98
2024-01-07T02:58:53.285Z,67.00
2024-01-07T03:03:55.860Z,66.92
2024-01-07T03:08:58.410Z,67.06
2024-01-07T03:14:00.921Z,67.14
2024-01-07T03:19:06.230Z,67.16
2024-01-07T03:24:09.003Z,67.06
2024-01-07T03:29:11.422Z,66.93
2024-01-07T03:34:14.055Z,67.16
2024-01-07T03:39:16.600Z,67.02
2024-01-07T03:44:19.048Z,66.84
2024-01-07T03:49:21.631Z,67.10
2024-01-07T03:54:24.288Z,67.15
2024-01-07T03:59:28.290Z,67.18
2024-01-07T04:04:30.891Z,67.17
2024-01-07T04:09:33.421Z,67.10
2024-01-07T04:14:35.887Z,67.06
2024-01-07T04:19:39.876Z,67.00
2024-01-07T04:24:43.370Z,67.21
2024-01-07T04:29:45.935Z,67.17
2024-01-07T04:34:48.472Z,67.02
2024-01-07T04:39:51.311Z,67.12
2024-01-07T04:44:53.877Z,66.99
2024-01-07T04:49:56.875Z,67.07
2024-01-07T04:54:59.486Z,66.99
2024-01-07T05:00:02.016Z,66.96
2024-01-07T05:05:06.221Z,67.02
2024-01-07T05:10:09.133Z,67.09
2024-01-07T05:15:11.627Z,67.06
2024-01-07T05:20:16.962Z,66.74
2024-01-07T05:25:19.556Z,66.80
2024-01-07T05:30:23.720Z,66.96
2024-01-07T05:35:26.301Z,67.04
2024-01-07T05:40:28.820Z,66.85
2024-01-07T05:45:31.357Z,67.06
2024-01-07T05:50:33.931Z,66.80
2024-01-07T05:55:36.709Z,66.81
2024-01-07T06:00:39.826Z,66.82
2024-01-07T06:05:42.376Z,66.71
2024-01-07T06:10:45.449Z,67.00
2024-01-07T06:15:47.968Z,66.84
2024-01-07T06:20:52.013Z,67.02
2024-01-07T06:25:54.447Z,66.92
2024-01-07T06:31:00.004Z,66.67
2024-01-07T06:36:03.386Z,66.80
2024-01-07T06:41:07.128Z,66.92
2024-01-07T06:46:09.753Z,66.79
2024-01-07T06:51:12.286Z,66.65
2024-01-07T06:56:15.310Z,66.84
2024-01-07T07:01:26.046Z,66.84
2024-01-07T07:06:28.888Z,66.67
2024-01-07T07:11:31.426Z,66.81
2024-01-07T07:16:34.022Z,66.89
2024-01-07T07:21:36.789Z,66.74
2024-01-07T07:26:42.217Z,66.67
2024-01-07T07:31:44.871Z,66.74
2024-01-07T07:36:47.485Z,66.86
2024-01-07T07:41:50.062Z,67.06
2024-01-07T07:46:52.575Z,67.53
2024-01-07T07:51:55.156Z,67.78
2024-01-07T07:56:57.741Z,67.26
2024-01-07T08:02:01.277Z,66.87
2024-01-07T08:07:04.285Z,65.73
2024-01-07T08:12:07.605Z,65.48
2024-01-07T08:17:10.151Z,65.41
2024-01-07T08:22:13.948Z,65.51
2024-01-07T08:27:16.571Z,65.39
2024-01-07T08:32:19.196Z,65.64
2024-01-07T08:37:21.832Z,65.47
2024-01-07T08:42:27.232Z,65.49
2024-01-07T08:47:36.188Z,65.61
2024-01-07T08:52:41.234Z,65.61
2024-01-07T08:57:43.882Z,65.67
2024-01-07T09:02:46.473Z,65.75
2024-01-07T09:07:49.026Z,65.68
2024-01-07T09:12:51.809Z,65.75
2024-01-07T09:17:54.669Z,65.81
2024-01-07T09:22:57.280Z,65.75
2024-01-07T09:27:59.954Z,65.76
2024-01-07T09:33:03.079Z,65.73
2024-01-07T09:38:05.672Z,65.73
2024-01-07T09:43:11.096Z,65.57
2024-01-07T09:48:13.856Z,65.56
2024-01-07T09:53:20.218Z,65.65
2024-01-07T09:58:22.885Z,65.74
2024-01-07T10:03:26.070Z,65.66
2024-01-07T10:08:30.912Z,65.69
2024-01-07T10:13:34.040Z,65.61
2024-01-07T10:18:36.902Z,65.77
2024-01-07T10:23:39.589Z,65.54
2024-01-07T10:28:42.284Z,65.82
2024-01-07T10:33:46.087Z,65.62
2024-01-07T10:38:49.461Z,65.71
2024-01-07T10:43:52.138Z,65.51
2024-01-07T10:49:01.822Z,65.73
2024-01-07T10:54:04.703Z,65.82
2024-01-07T10:59:07.311Z,65.66
2024-01-07T11:04:19.684Z,65.86
2024-01-07T11:09:57.871Z,65.74
2024-01-07T11:15:02.026Z,65.81
2024-01-07T11:20:07.871Z,65.76
2024-01-07T11:25:30.009Z,65.79
2024-01-07T11:30:33.747Z,65.69
2024-01-07T11:36:04.107Z,65.71
2024-01-07T11:41:07.824Z,65.79
2024-01-07T11:46:12.933Z,65.84
2024-01-07T11:51:18.277Z,65.75
2024-01-07T11:56:21.045Z,65.64
2024-01-07T12:01:33.194Z,65.77
2024-01-07T12:06:39.153Z,65.59
2024-01-07T12:11:46.105Z,65.83
2024-01-07T12:16:48.861Z,65.58
2024-01-07T12:22:03.374Z,65.70
2024-01-07T12:27:07.219Z,65.85
2024-01-07T12:32:11.707Z,65.87
2024-01-07T12:37:15.249Z,65.97
2024-01-07T12:42:17.946Z,66.08
2024-01-07T12:47:20.481Z,65.99
2024-01-07T12:52:26.129Z,65.83
2024-01-07T12:57:28.632Z,65.81
2024-01-07T13:02:31.118Z,65.88
2024-01-07T13:07:33.778Z,65.85
2024-01-07T13:12:43.625Z,65.86
2024-01-07T13:17:54.569Z,66.02
2024-01-07T13:22:57.142Z,65.71
2024-01-07T13:28:00.857Z,65.81
2024-01-07T13:33:06.632Z,65.75
2024-01-07T13:38:13.180Z,65.90
2024-01-07T13:43:16.925Z,66.02
2024-01-07T13:48:19.568Z,65.97
2024-01-07T13:53:22.214Z,65.71
2024-01-07T13:58:25.310Z,65.91
2024-01-07T14:03:27.978Z,66.05
2024-01-07T14:08:30.623Z,65.82
2024-01-07T14:13:33.168Z,65.74
2024-01-07T14:18:36.945Z,65.79
2024-01-07T14:23:39.613Z,65.98
2024-01-07T14:28:42.155Z,66.03
2024-01-07T14:33:45.381Z,65.83
2024-01-07T14:38:50.607Z,65.83
2024-01-07T14:43:53.246Z,65.91
2024-01-07T14:48:56.025Z,66.10
2024-01-07T14:54:01.964Z,65.83
2024-01-07T14:59:04.588Z,65.78
2024-01-07T15:04:07.596Z,65.70
2024-01-07T15:09:10.130Z,66.02
2024-01-07T15:14:12.903Z,65.70
2024-01-07T15:19:15.418Z,65.92
2024-01-07T15:24:18.509Z,66.17
2024-01-07T15:29:21.287Z,66.03
2024-01-07T15:34:24.049Z,66.11
2024-01-07T15:39:26.561Z,66.08
2024-01-07T15:44:31.449Z,65.90
2024-01-07T15:49:34.241Z,66.05
2024-01-07T15:54:37.041Z,66.08
2024-01-07T15:59:42.700Z,65.95
2024-01-07T16:04:46.815Z,65.90
2024-01-07T16:09:49.445Z,65.87
2024-01-07T16:14:51.997Z,65.95
2024-01-07T16:19:54.613Z,65.92
2024-01-07T16:24:57.265Z,65.96
2024-01-07T16:29:59.808Z,65.99
2024-01-07T16:35:02.736Z,65.75
2024-01-07T16:40:08.670Z,65.93
2024-01-07T16:45:11.302Z,65.88
2024-01-07T16:50:22.268Z,65.97
2024-01-07T16:55:27.643Z,65.85
2024-01-07T17:00:30.329Z,65.74
2024-01-07T17:05:34.314Z,66.03
2024-01-07T17:10:36.972Z,66.16
2024-01-07T17:15:43.359Z,65.97
2024-01-07T17:20:49.365Z,65.94
2024-01-07T17:25:53.408Z,66.14
2024-01-07T17:31:00.073Z,65.84
2024-01-07T17:36:05.193Z,65.93
2024-01-07T17:41:07.817Z,65.96
2024-01-07T17:46:11.736Z,65.84
2024-01-07T17:51:20.393Z,65.86
2024-01-07T17:56:26.523Z,66.04
2024-01-07T18:01:30.965Z,66.06
2024-01-07T18:06:36.474Z,66.00
2024-01-07T18:11:39.799Z,65.97
2024-01-07T18:16:42.482Z,66.00
2024-01-07T18:21:48.267Z,65.89
2024-01-07T18:26:57.538Z,66.13
2024-01-07T18:32:00.707Z,66.04
2024-01-07T18:37:03.524Z,66.05
2024-01-07T18:42:13.945Z,65.94
2024-01-07T18:47:16.891Z,65.92
2024-01-07T18:52:19.399Z,65.82
2024-01-07T18:57:24.640Z,66.22
2024-01-07T19:02:27.270Z,65.92
2024-01-07T19:07:30.137Z,65.96
2024-01-07T19:12:32.700Z,65.95
2024-01-07T19:17:39.142Z,65.93
2024-01-07T19:22:45.786Z,65.74
2024-01-07T19:27:48.458Z,65.75
2024-01-07T19:32:51.087Z,65.87
2024-01-07T19:37:54.422Z,66.04
2024-01-07T19:42:57.072Z,65.98
2024-01-07T19:48:00.042Z,65.92
2024-01-07T19:53:04.001Z,66.24
2024-01-07T19:58:11.969Z,65.89
2024-01-07T20:03:15.699Z,66.12
2024-01-07T20:08:19.746Z,66.07
2024-01-07T20:13:24.981Z,66.10
2024-01-07T20:18:31.146Z,66.08
2024-01-07T20:23:39.455Z,66.22
2024-01-07T20:28:42.045Z,65.72
2024-01-07T20:33:47.785Z,65.99
2024-01-07T20:38:50.482Z,66.10
2024-01-07T20:43:53.021Z,66.21
2024-01-07T20:48:55.613Z,66.22
2024-01-07T20:54:00.959Z,65.90
2024-01-07T20:59:08.299Z,65.91
2024-01-07T21:04:11.130Z,66.09
2024-01-07T21:09:14.497Z,65.88
2024-01-07T21:14:17.100Z,65.95
2024-01-07T21:19:19.716Z,66.23
2024-01-07T21:24:24.953Z,66.15
2024-01-07T21:29:27.555Z,66.16
2024-01-07T21:34:30.189Z,65.91
2024-01-07T21:39:35.800Z,66.24
2024-01-07T21:44:38.544Z,65.77
2024-01-07T21:49:48.428Z,66.02
2024-01-07T21:54:54.414Z,66.11
2024-01-07T21:59:57.009Z,65.88
2024-01-07T22:04:59.573Z,66.11
2024-01-07T22:10:02.211Z,66.02
2024-01-07T22:15:06.520Z,65.97
2024-01-07T22:20:09.977Z,66.09
2024-01-07T22:25:12.507Z,65.98
2024-01-07T22:30:15.385Z,66.21
2024-01-07T22:35:18.018Z,66.02
2024-01-07T22:40:20.583Z,66.17
2024-01-07T22:45:23.331Z,65.86
2024-01-07T22:50:26.288Z,66.06
2024-01-07T22:55:28.782Z,66.13
2024-01-07T23:00:31.327Z,65.81
2024-01-07T23:05:37.717Z,65.97
2024-01-07T23:10:43.493Z,66.06
2024-01-07T23:15:46.002Z,65.91
2024-01-07T23:20:48.586Z,65.94
2024-01-07T23:25:51.236Z,66.01
2024-01-07T23:30:53.827Z,65.90
2024-01-07T23:36:01.950Z,65.90
2024-01-07T23:41:06.156Z,66.01
2024-01-07T23:46:08.892Z,65.98
2024-01-07T23:51:11.329Z,65.98
2024-01-07T23:56:13.870Z,66.01
